sensor_id;sensor_type;location;lat;lon;timestamp;pressure;altitude;pressure_sealevel;temperature;humidity
11413;BME280;5762;43.256;26.960;2022-12-29T00:00:03;100823.63;;;2.63;100.00
11413;BME280;5762;43.256;26.960;2022-12-29T00:02:31;100828.59;;;2.60;100.00
11413;BME280;5762;43.256;26.960;2022-12-29T00:05:01;100822.16;;;2.67;100.00
11413;BME280;5762;43.256;26.960;2022-12-29T00:07:30;100825.92;;;2.60;100.00
11413;BME280;5762;43.256;26.960;2022-12-29T00:09:59;100831.32;;;2.53;100.00
11413;BME280;5762;43.256;26.960;2022-12-29T00:12:28;100823.87;;;2.46;100.00
11413;BME280;5762;43.256;26.960;2022-12-29T00:14:57;100822.70;;;2.42;100.00
11413;BME280;5762;43.256;26.960;2022-12-29T00:17:43;100821.06;;;2.41;100.00
11413;BME280;5762;43.256;26.960;2022-12-29T00:20:12;100816.16;;;2.47;100.00
11413;BME280;5762;43.256;26.960;2022-12-29T00:22:57;100816.37;;;2.46;100.00
11413;BME280;5762;43.256;26.960;2022-12-29T00:25:43;100817.88;;;2.51;100.00
11413;BME280;5762;43.256;26.960;2022-12-29T00:28:27;100819.55;;;2.61;100.00
11413;BME280;5762;43.256;26.960;2022-12-29T00:31:13;100821.62;;;2.59;100.00
11413;BME280;5762;43.256;26.960;2022-12-29T00:34:02;100822.78;;;2.54;100.00
11413;BME280;5762;43.256;26.960;2022-12-29T00:36:48;100826.41;;;2.50;100.00
11413;BME280;5762;43.256;26.960;2022-12-29T00:39:17;100816.89;;;2.45;100.00
11413;BME280;5762;43.256;26.960;2022-12-29T00:42:03;100819.27;;;2.44;100.00
11413;BME280;5762;43.256;26.960;2022-12-29T00:44:48;100819.73;;;2.41;100.00
11413;BME280;5762;43.256;26.960;2022-12-29T00:47:16;100820.08;;;2.35;100.00
11413;BME280;5762;43.256;26.960;2022-12-29T00:49:45;100812.53;;;2.42;100.00
11413;BME280;5762;43.256;26.960;2022-12-29T00:52:13;100804.52;;;2.42;100.00
11413;BME280;5762;43.256;26.960;2022-12-29T00:54:42;100806.80;;;2.47;100.00
11413;BME280;5762;43.256;26.960;2022-12-29T00:57:11;100800.56;;;2.44;100.00
11413;BME280;5762;43.256;26.960;2022-12-29T00:59:40;100800.78;;;2.43;100.00
11413;BME280;5762;43.256;26.960;2022-12-29T01:02:10;100800.21;;;2.50;100.00
11413;BME280;5762;43.256;26.960;2022-12-29T01:04:39;100795.38;;;2.49;100.00
11413;BME280;5762;43.256;26.960;2022-12-29T01:07:08;100793.99;;;2.56;100.00
11413;BME280;5762;43.256;26.960;2022-12-29T01:09:37;100789.60;;;2.52;100.00
11413;BME280;5762;43.256;26.960;2022-12-29T01:12:22;100790.17;;;2.45;100.00
11413;BME280;5762;43.256;26.960;2022-12-29T01:14:51;100790.72;;;2.54;100.00
11413;BME280;5762;43.256;26.960;2022-12-29T01:17:19;100781.15;;;2.55;100.00
11413;BME280;5762;43.256;26.960;2022-12-29T01:19:49;100771.28;;;2.56;100.00
11413;BME280;5762;43.256;26.960;2022-12-29T01:22:18;100758.11;;;2.45;100.00
11413;BME280;5762;43.256;26.960;2022-12-29T01:24:47;100754.33;;;2.44;100.00
11413;BME280;5762;43.256;26.960;2022-12-29T01:27:15;100756.34;;;2.39;100.00
11413;BME280;5762;43.256;26.960;2022-12-29T01:29:44;100755.44;;;2.45;100.00
11413;BME280;5762;43.256;26.960;2022-12-29T01:32:12;100761.03;;;2.53;100.00
11413;BME280;5762;43.256;26.960;2022-12-29T01:34:41;100760.65;;;2.49;100.00
11413;BME280;5762;43.256;26.960;2022-12-29T01:37:10;100744.78;;;2.54;100.00
11413;BME280;5762;43.256;26.960;2022-12-29T01:39:39;100734.61;;;2.54;100.00
11413;BME280;5762;43.256;26.960;2022-12-29T01:42:14;100725.48;;;2.52;100.00
11413;BME280;5762;43.256;26.960;2022-12-29T01:47:08;100728.01;;;2.56;100.00
11413;BME280;5762;43.256;26.960;2022-12-29T01:49:37;100723.02;;;2.51;100.00
11413;BME280;5762;43.256;26.960;2022-12-29T01:52:06;100728.59;;;2.40;100.00
11413;BME280;5762;43.256;26.960;2022-12-29T01:54:36;100728.45;;;2.53;100.00
11413;BME280;5762;43.256;26.960;2022-12-29T01:57:07;100725.87;;;2.65;100.00
11413;BME280;5762;43.256;26.960;2022-12-29T01:59:36;100714.14;;;2.66;100.00
11413;BME280;5762;43.256;26.960;2022-12-29T02:02:04;100720.43;;;2.53;100.00
11413;BME280;5762;43.256;26.960;2022-12-29T02:04:34;100727.61;;;2.44;100.00
11413;BME280;5762;43.256;26.960;2022-12-29T02:07:05;100727.11;;;2.53;100.00
11413;BME280;5762;43.256;26.960;2022-12-29T02:09:33;100729.94;;;2.58;100.00
11413;BME280;5762;43.256;26.960;2022-12-29T02:12:02;100736.00;;;2.47;100.00
11413;BME280;5762;43.256;26.960;2022-12-29T02:14:31;100730.20;;;2.32;100.00
11413;BME280;5762;43.256;26.960;2022-12-29T02:17:07;100717.61;;;2.14;100.00
11413;BME280;5762;43.256;26.960;2022-12-29T02:19:47;100718.44;;;2.15;100.00
11413;BME280;5762;43.256;26.960;2022-12-29T02:24:45;100717.83;;;2.04;100.00
11413;BME280;5762;43.256;26.960;2022-12-29T02:30:01;100706.69;;;1.97;100.00
11413;BME280;5762;43.256;26.960;2022-12-29T02:37:43;100705.13;;;1.99;100.00
11413;BME280;5762;43.256;26.960;2022-12-29T02:40:22;100717.80;;;1.94;100.00
11413;BME280;5762;43.256;26.960;2022-12-29T02:48:06;100697.77;;;1.94;100.00
11413;BME280;5762;43.256;26.960;2022-12-29T02:50:35;100692.73;;;1.95;100.00
11413;BME280;5762;43.256;26.960;2022-12-29T02:53:06;100692.91;;;2.00;100.00
11413;BME280;5762;43.256;26.960;2022-12-29T02:55:34;100707.03;;;1.76;100.00
11413;BME280;5762;43.256;26.960;2022-12-29T02:58:21;100694.16;;;1.73;100.00
11413;BME280;5762;43.256;26.960;2022-12-29T03:00:34;100703.53;;;1.66;100.00
11413;BME280;5762;43.256;26.960;2022-12-29T03:16:05;100704.48;;;1.63;100.00
11413;BME280;5762;43.256;26.960;2022-12-29T03:18:44;100703.45;;;1.64;100.00
11413;BME280;5762;43.256;26.960;2022-12-29T03:21:12;100710.22;;;1.76;100.00
11413;BME280;5762;43.256;26.960;2022-12-29T03:23:41;100706.21;;;1.91;100.00
11413;BME280;5762;43.256;26.960;2022-12-29T03:26:11;100703.88;;;2.11;100.00
11413;BME280;5762;43.256;26.960;2022-12-29T03:28:51;100704.94;;;2.19;100.00
11413;BME280;5762;43.256;26.960;2022-12-29T03:31:16;100706.74;;;2.25;100.00
11413;BME280;5762;43.256;26.960;2022-12-29T03:33:45;100707.37;;;2.36;100.00
11413;BME280;5762;43.256;26.960;2022-12-29T03:36:32;100704.09;;;2.43;100.00
11413;BME280;5762;43.256;26.960;2022-12-29T03:38:58;100707.66;;;2.46;100.00
11413;BME280;5762;43.256;26.960;2022-12-29T03:41:28;100710.42;;;2.58;100.00
11413;BME280;5762;43.256;26.960;2022-12-29T03:43:56;100711.89;;;2.54;100.00
11413;BME280;5762;43.256;26.960;2022-12-29T03:46:25;100706.39;;;2.49;100.00
11413;BME280;5762;43.256;26.960;2022-12-29T03:48:54;100699.51;;;2.59;100.00
11413;BME280;5762;43.256;26.960;2022-12-29T03:51:23;100700.48;;;2.74;100.00
11413;BME280;5762;43.256;26.960;2022-12-29T03:53:52;100694.84;;;2.73;100.00
11413;BME280;5762;43.256;26.960;2022-12-29T03:56:21;100696.92;;;2.71;100.00
11413;BME280;5762;43.256;26.960;2022-12-29T03:58:50;100700.11;;;2.71;100.00
11413;BME280;5762;43.256;26.960;2022-12-29T04:01:19;100698.03;;;2.63;100.00
11413;BME280;5762;43.256;26.960;2022-12-29T04:03:47;100694.30;;;2.46;100.00
11413;BME280;5762;43.256;26.960;2022-12-29T04:06:16;100698.13;;;2.23;100.00
11413;BME280;5762;43.256;26.960;2022-12-29T04:08:45;100695.68;;;2.21;100.00
11413;BME280;5762;43.256;26.960;2022-12-29T04:11:14;100713.98;;;2.18;100.00
11413;BME280;5762;43.256;26.960;2022-12-29T04:13:43;100710.50;;;2.17;100.00
11413;BME280;5762;43.256;26.960;2022-12-29T04:16:12;100714.38;;;2.21;100.00
11413;BME280;5762;43.256;26.960;2022-12-29T04:18:41;100715.27;;;2.24;100.00
11413;BME280;5762;43.256;26.960;2022-12-29T04:21:10;100708.54;;;2.31;100.00
11413;BME280;5762;43.256;26.960;2022-12-29T04:23:39;100707.80;;;2.33;100.00
11413;BME280;5762;43.256;26.960;2022-12-29T04:26:08;100707.80;;;2.33;100.00
11413;BME280;5762;43.256;26.960;2022-12-29T04:28:37;100713.22;;;2.35;100.00
11413;BME280;5762;43.256;26.960;2022-12-29T04:31:10;100719.61;;;2.34;100.00
11413;BME280;5762;43.256;26.960;2022-12-29T04:33:35;100721.59;;;2.30;100.00
11413;BME280;5762;43.256;26.960;2022-12-29T04:36:03;100715.98;;;2.13;100.00
11413;BME280;5762;43.256;26.960;2022-12-29T04:38:31;100715.46;;;2.14;100.00
11413;BME280;5762;43.256;26.960;2022-12-29T04:41:00;100719.80;;;2.24;100.00
11413;BME280;5762;43.256;26.960;2022-12-29T04:43:29;100721.81;;;2.28;100.00
11413;BME280;5762;43.256;26.960;2022-12-29T04:45:58;100715.95;;;2.29;100.00
11413;BME280;5762;43.256;26.960;2022-12-29T04:48:27;100719.52;;;2.32;100.00
11413;BME280;5762;43.256;26.960;2022-12-29T04:50:55;100721.45;;;2.34;100.00
11413;BME280;5762;43.256;26.960;2022-12-29T04:53:24;100727.16;;;2.28;100.00
11413;BME280;5762;43.256;26.960;2022-12-29T04:55:53;100718.73;;;2.16;100.00
11413;BME280;5762;43.256;26.960;2022-12-29T04:58:23;100721.32;;;2.13;100.00
11413;BME280;5762;43.256;26.960;2022-12-29T05:00:52;100723.61;;;2.10;100.00
11413;BME280;5762;43.256;26.960;2022-12-29T05:03:21;100728.95;;;2.10;100.00
11413;BME280;5762;43.256;26.960;2022-12-29T05:05:52;100729.41;;;2.07;100.00
11413;BME280;5762;43.256;26.960;2022-12-29T05:08:19;100729.71;;;2.08;100.00
11413;BME280;5762;43.256;26.960;2022-12-29T05:10:49;100734.07;;;2.11;100.00
11413;BME280;5762;43.256;26.960;2022-12-29T05:13:19;100733.34;;;2.13;100.00
11413;BME280;5762;43.256;26.960;2022-12-29T05:15:51;100730.88;;;2.12;100.00
11413;BME280;5762;43.256;26.960;2022-12-29T05:18:20;100731.78;;;2.06;100.00
11413;BME280;5762;43.256;26.960;2022-12-29T05:20:49;100739.15;;;1.94;100.00
11413;BME280;5762;43.256;26.960;2022-12-29T05:23:18;100740.91;;;1.91;100.00
11413;BME280;5762;43.256;26.960;2022-12-29T05:25:47;100749.18;;;1.99;100.00
11413;BME280;5762;43.256;26.960;2022-12-29T05:28:15;100744.79;;;1.95;100.00
11413;BME280;5762;43.256;26.960;2022-12-29T05:30:43;100741.00;;;1.94;100.00
11413;BME280;5762;43.256;26.960;2022-12-29T05:33:12;100739.45;;;1.95;100.00
11413;BME280;5762;43.256;26.960;2022-12-29T05:35:41;100735.36;;;1.93;100.00
11413;BME280;5762;43.256;26.960;2022-12-29T05:38:10;100732.39;;;1.92;100.00
11413;BME280;5762;43.256;26.960;2022-12-29T05:40:39;100728.99;;;1.94;100.00
11413;BME280;5762;43.256;26.960;2022-12-29T05:43:08;100729.38;;;1.97;100.00
11413;BME280;5762;43.256;26.960;2022-12-29T05:45:37;100721.02;;;2.03;100.00
11413;BME280;5762;43.256;26.960;2022-12-29T05:48:06;100725.16;;;1.99;100.00
11413;BME280;5762;43.256;26.960;2022-12-29T05:50:35;100728.55;;;1.97;100.00
11413;BME280;5762;43.256;26.960;2022-12-29T05:53:04;100731.44;;;1.95;100.00
11413;BME280;5762;43.256;26.960;2022-12-29T05:55:33;100737.08;;;1.96;100.00
11413;BME280;5762;43.256;26.960;2022-12-29T05:58:02;100734.11;;;1.95;100.00
11413;BME280;5762;43.256;26.960;2022-12-29T06:00:31;100736.70;;;1.93;100.00
11413;BME280;5762;43.256;26.960;2022-12-29T06:03:00;100738.94;;;1.96;100.00
11413;BME280;5762;43.256;26.960;2022-12-29T06:05:29;100740.66;;;1.99;100.00
11413;BME280;5762;43.256;26.960;2022-12-29T06:07:57;100734.37;;;2.03;100.00
11413;BME280;5762;43.256;26.960;2022-12-29T06:10:26;100739.11;;;2.10;100.00
11413;BME280;5762;43.256;26.960;2022-12-29T06:12:55;100739.36;;;2.18;100.00
11413;BME280;5762;43.256;26.960;2022-12-29T06:15:24;100739.01;;;2.23;100.00
11413;BME280;5762;43.256;26.960;2022-12-29T06:17:52;100744.30;;;2.30;100.00
11413;BME280;5762;43.256;26.960;2022-12-29T06:20:21;100744.41;;;2.42;100.00
11413;BME280;5762;43.256;26.960;2022-12-29T06:22:50;100747.81;;;2.40;100.00
11413;BME280;5762;43.256;26.960;2022-12-29T06:25:19;100743.50;;;2.48;100.00
11413;BME280;5762;43.256;26.960;2022-12-29T06:27:48;100744.10;;;2.50;100.00
11413;BME280;5762;43.256;26.960;2022-12-29T06:30:16;100753.75;;;2.42;100.00
11413;BME280;5762;43.256;26.960;2022-12-29T06:32:44;100755.74;;;2.46;100.00
11413;BME280;5762;43.256;26.960;2022-12-29T06:35:13;100754.59;;;2.26;100.00
11413;BME280;5762;43.256;26.960;2022-12-29T06:37:42;100754.61;;;2.11;100.00
11413;BME280;5762;43.256;26.960;2022-12-29T06:40:11;100755.55;;;2.23;100.00
11413;BME280;5762;43.256;26.960;2022-12-29T06:42:40;100747.84;;;2.24;100.00
11413;BME280;5762;43.256;26.960;2022-12-29T06:45:09;100755.53;;;2.39;100.00
11413;BME280;5762;43.256;26.960;2022-12-29T06:47:37;100753.07;;;2.46;100.00
11413;BME280;5762;43.256;26.960;2022-12-29T06:50:06;100759.99;;;2.54;100.00
11413;BME280;5762;43.256;26.960;2022-12-29T06:52:35;100767.27;;;2.56;100.00
11413;BME280;5762;43.256;26.960;2022-12-29T06:55:04;100763.18;;;2.53;100.00
11413;BME280;5762;43.256;26.960;2022-12-29T06:57:33;100759.61;;;2.50;100.00
11413;BME280;5762;43.256;26.960;2022-12-29T07:00:03;100750.64;;;2.54;100.00
11413;BME280;5762;43.256;26.960;2022-12-29T07:02:32;100754.95;;;2.55;100.00
11413;BME280;5762;43.256;26.960;2022-12-29T07:05:00;100753.53;;;2.52;100.00
11413;BME280;5762;43.256;26.960;2022-12-29T07:07:29;100757.89;;;2.47;100.00
11413;BME280;5762;43.256;26.960;2022-12-29T07:09:56;100761.63;;;2.55;100.00
11413;BME280;5762;43.256;26.960;2022-12-29T07:12:25;100763.16;;;2.44;100.00
11413;BME280;5762;43.256;26.960;2022-12-29T07:14:54;100765.83;;;2.35;100.00
11413;BME280;5762;43.256;26.960;2022-12-29T07:17:22;100771.47;;;2.36;100.00
11413;BME280;5762;43.256;26.960;2022-12-29T07:19:51;100770.73;;;2.38;100.00
11413;BME280;5762;43.256;26.960;2022-12-29T07:22:19;100779.95;;;2.51;100.00
11413;BME280;5762;43.256;26.960;2022-12-29T07:24:48;100776.22;;;2.43;100.00
11413;BME280;5762;43.256;26.960;2022-12-29T07:27:17;100775.56;;;2.39;100.00
11413;BME280;5762;43.256;26.960;2022-12-29T07:29:49;100772.51;;;2.44;100.00
11413;BME280;5762;43.256;26.960;2022-12-29T07:32:18;100774.06;;;2.33;100.00
11413;BME280;5762;43.256;26.960;2022-12-29T07:34:46;100773.33;;;2.35;100.00
11413;BME280;5762;43.256;26.960;2022-12-29T07:37:15;100777.20;;;2.49;100.00
11413;BME280;5762;43.256;26.960;2022-12-29T07:39:44;100779.98;;;2.60;100.00
11413;BME280;5762;43.256;26.960;2022-12-29T07:42:13;100780.89;;;2.91;100.00
11413;BME280;5762;43.256;26.960;2022-12-29T07:44:42;100778.23;;;3.09;100.00
11413;BME280;5762;43.256;26.960;2022-12-29T07:47:10;100779.91;;;3.13;100.00
11413;BME280;5762;43.256;26.960;2022-12-29T07:49:39;100785.64;;;3.25;100.00
11413;BME280;5762;43.256;26.960;2022-12-29T07:52:08;100774.48;;;3.28;100.00
11413;BME280;5762;43.256;26.960;2022-12-29T07:54:37;100776.87;;;3.27;100.00
11413;BME280;5762;43.256;26.960;2022-12-29T07:57:05;100777.27;;;3.52;100.00
11413;BME280;5762;43.256;26.960;2022-12-29T07:59:34;100773.36;;;3.75;100.00
11413;BME280;5762;43.256;26.960;2022-12-29T08:02:03;100774.92;;;3.94;100.00
11413;BME280;5762;43.256;26.960;2022-12-29T08:04:32;100766.69;;;4.08;100.00
11413;BME280;5762;43.256;26.960;2022-12-29T08:07:00;100772.70;;;4.12;100.00
11413;BME280;5762;43.256;26.960;2022-12-29T08:09:29;100775.38;;;4.24;100.00
11413;BME280;5762;43.256;26.960;2022-12-29T08:11:58;100768.82;;;4.41;100.00
11413;BME280;5762;43.256;26.960;2022-12-29T08:14:27;100766.37;;;4.39;100.00
11413;BME280;5762;43.256;26.960;2022-12-29T08:17:01;100769.77;;;4.46;100.00
11413;BME280;5762;43.256;26.960;2022-12-29T08:19:25;100766.83;;;4.36;100.00
11413;BME280;5762;43.256;26.960;2022-12-29T08:21:54;100773.77;;;4.69;100.00
11413;BME280;5762;43.256;26.960;2022-12-29T08:24:23;100770.56;;;4.82;100.00
11413;BME280;5762;43.256;26.960;2022-12-29T08:26:52;100771.17;;;4.98;100.00
11413;BME280;5762;43.256;26.960;2022-12-29T08:29:20;100770.17;;;5.01;100.00
11413;BME280;5762;43.256;26.960;2022-12-29T08:31:49;100770.97;;;5.14;100.00
11413;BME280;5762;43.256;26.960;2022-12-29T08:34:18;100759.77;;;5.17;100.00
11413;BME280;5762;43.256;26.960;2022-12-29T08:36:47;100758.09;;;5.01;100.00
11413;BME280;5762;43.256;26.960;2022-12-29T08:39:16;100759.31;;;4.82;100.00
11413;BME280;5762;43.256;26.960;2022-12-29T08:41:45;100756.81;;;5.04;100.00
11413;BME280;5762;43.256;26.960;2022-12-29T08:44:14;100748.56;;;5.20;100.00
11413;BME280;5762;43.256;26.960;2022-12-29T08:46:42;100736.68;;;5.44;100.00
11413;BME280;5762;43.256;26.960;2022-12-29T08:49:11;100741.02;;;5.62;100.00
11413;BME280;5762;43.256;26.960;2022-12-29T08:51:39;100738.42;;;5.81;100.00
11413;BME280;5762;43.256;26.960;2022-12-29T08:54:08;100738.03;;;5.89;100.00
11413;BME280;5762;43.256;26.960;2022-12-29T08:56:37;100736.10;;;6.01;100.00
11413;BME280;5762;43.256;26.960;2022-12-29T08:59:06;100733.02;;;6.10;100.00
11413;BME280;5762;43.256;26.960;2022-12-29T09:01:35;100728.26;;;6.14;100.00
11413;BME280;5762;43.256;26.960;2022-12-29T09:04:04;100727.41;;;6.30;100.00
11413;BME280;5762;43.256;26.960;2022-12-29T09:06:33;100724.77;;;6.33;100.00
11413;BME280;5762;43.256;26.960;2022-12-29T09:09:01;100721.59;;;6.36;100.00
11413;BME280;5762;43.256;26.960;2022-12-29T09:11:30;100715.64;;;6.34;100.00
11413;BME280;5762;43.256;26.960;2022-12-29T09:13:59;100721.49;;;6.12;100.00
11413;BME280;5762;43.256;26.960;2022-12-29T09:16:28;100712.95;;;6.15;100.00
11413;BME280;5762;43.256;26.960;2022-12-29T09:18:57;100717.06;;;6.39;100.00
11413;BME280;5762;43.256;26.960;2022-12-29T09:21:26;100705.33;;;6.45;100.00
11413;BME280;5762;43.256;26.960;2022-12-29T09:23:55;100700.95;;;6.58;100.00
11413;BME280;5762;43.256;26.960;2022-12-29T09:26:24;100695.44;;;6.70;100.00
11413;BME280;5762;43.256;26.960;2022-12-29T09:28:54;100696.11;;;6.80;100.00
11413;BME280;5762;43.256;26.960;2022-12-29T09:31:23;100691.65;;;6.88;100.00
11413;BME280;5762;43.256;26.960;2022-12-29T09:33:52;100690.55;;;6.86;100.00
11413;BME280;5762;43.256;26.960;2022-12-29T09:36:20;100682.67;;;7.04;100.00
11413;BME280;5762;43.256;26.960;2022-12-29T09:38:49;100681.98;;;7.14;100.00
11413;BME280;5762;43.256;26.960;2022-12-29T09:41:26;100678.20;;;7.12;100.00
11413;BME280;5762;43.256;26.960;2022-12-29T09:44:08;100670.30;;;7.30;100.00
11413;BME280;5762;43.256;26.960;2022-12-29T09:46:37;100673.08;;;7.37;100.00
11413;BME280;5762;43.256;26.960;2022-12-29T09:49:14;100668.89;;;7.49;100.00
11413;BME280;5762;43.256;26.960;2022-12-29T09:51:37;100665.83;;;7.70;100.00
11413;BME280;5762;43.256;26.960;2022-12-29T09:54:30;100664.88;;;7.84;100.00
11413;BME280;5762;43.256;26.960;2022-12-29T09:56:40;100663.84;;;7.87;100.00
11413;BME280;5762;43.256;26.960;2022-12-29T09:59:14;100661.75;;;7.99;100.00
11413;BME280;5762;43.256;26.960;2022-12-29T10:04:26;100654.83;;;8.11;100.00
11413;BME280;5762;43.256;26.960;2022-12-29T10:07:01;100658.14;;;8.21;100.00
11413;BME280;5762;43.256;26.960;2022-12-29T10:12:11;100651.44;;;8.26;100.00
11413;BME280;5762;43.256;26.960;2022-12-29T10:17:20;100645.36;;;8.46;100.00
11413;BME280;5762;43.256;26.960;2022-12-29T10:19:50;100641.19;;;8.25;100.00
11413;BME280;5762;43.256;26.960;2022-12-29T10:22:35;100635.92;;;8.46;100.00
11413;BME280;5762;43.256;26.960;2022-12-29T10:25:02;100637.80;;;8.43;100.00
11413;BME280;5762;43.256;26.960;2022-12-29T10:27:31;100636.59;;;8.23;100.00
11413;BME280;5762;43.256;26.960;2022-12-29T10:30:01;100630.31;;;8.55;100.00
11413;BME280;5762;43.256;26.960;2022-12-29T10:32:41;100630.61;;;8.61;100.00
11413;BME280;5762;43.256;26.960;2022-12-29T10:35:16;100618.75;;;8.64;100.00
11413;BME280;5762;43.256;26.960;2022-12-29T10:37:40;100614.45;;;8.73;100.00
11413;BME280;5762;43.256;26.960;2022-12-29T10:40:19;100615.59;;;8.88;100.00
11413;BME280;5762;43.256;26.960;2022-12-29T10:42:45;100613.97;;;8.87;100.00
11413;BME280;5762;43.256;26.960;2022-12-29T10:45:14;100613.42;;;8.85;100.00
11413;BME280;5762;43.256;26.960;2022-12-29T10:47:51;100617.23;;;8.96;100.00
11413;BME280;5762;43.256;26.960;2022-12-29T10:50:19;100611.56;;;9.03;100.00
11413;BME280;5762;43.256;26.960;2022-12-29T10:52:48;100618.85;;;9.02;100.00
11413;BME280;5762;43.256;26.960;2022-12-29T10:55:18;100608.34;;;9.11;100.00
11413;BME280;5762;43.256;26.960;2022-12-29T10:57:46;100607.03;;;9.24;100.00
11413;BME280;5762;43.256;26.960;2022-12-29T11:00:17;100610.82;;;9.46;100.00
11413;BME280;5762;43.256;26.960;2022-12-29T11:05:41;100605.43;;;9.56;100.00
11413;BME280;5762;43.256;26.960;2022-12-29T11:08:11;100598.41;;;9.70;100.00
11413;BME280;5762;43.256;26.960;2022-12-29T11:10:40;100600.00;;;9.84;100.00
11413;BME280;5762;43.256;26.960;2022-12-29T11:15:49;100597.02;;;9.98;100.00
11413;BME280;5762;43.256;26.960;2022-12-29T11:18:18;100593.47;;;10.07;100.00
11413;BME280;5762;43.256;26.960;2022-12-29T11:20:48;100590.22;;;10.11;100.00
11413;BME280;5762;43.256;26.960;2022-12-29T11:23:36;100587.25;;;10.25;100.00
11413;BME280;5762;43.256;26.960;2022-12-29T11:28:44;100585.61;;;10.19;100.00
11413;BME280;5762;43.256;26.960;2022-12-29T11:31:16;100585.31;;;10.38;100.00
11413;BME280;5762;43.256;26.960;2022-12-29T11:33:46;100591.27;;;10.37;100.00
11413;BME280;5762;43.256;26.960;2022-12-29T11:36:22;100585.00;;;10.45;100.00
11413;BME280;5762;43.256;26.960;2022-12-29T11:38:48;100582.30;;;10.45;100.00
11413;BME280;5762;43.256;26.960;2022-12-29T11:41:25;100576.84;;;10.55;100.00
11413;BME280;5762;43.256;26.960;2022-12-29T11:43:48;100578.45;;;10.58;100.00
11413;BME280;5762;43.256;26.960;2022-12-29T11:46:19;100582.76;;;10.67;100.00
11413;BME280;5762;43.256;26.960;2022-12-29T11:48:47;100580.07;;;10.62;100.00
11413;BME280;5762;43.256;26.960;2022-12-29T11:51:23;100575.71;;;10.68;100.00
11413;BME280;5762;43.256;26.960;2022-12-29T11:53:56;100578.90;;;10.75;100.00
11413;BME280;5762;43.256;26.960;2022-12-29T11:56:33;100564.25;;;10.82;100.00
11413;BME280;5762;43.256;26.960;2022-12-29T12:01:33;100562.79;;;11.02;100.00
11413;BME280;5762;43.256;26.960;2022-12-29T12:04:04;100560.81;;;11.10;100.00
11413;BME280;5762;43.256;26.960;2022-12-29T12:06:29;100554.00;;;11.18;100.00
11413;BME280;5762;43.256;26.960;2022-12-29T12:09:08;100546.94;;;11.19;100.00
11413;BME280;5762;43.256;26.960;2022-12-29T12:11:32;100553.19;;;11.17;100.00
11413;BME280;5762;43.256;26.960;2022-12-29T12:14:02;100547.47;;;11.21;100.00
11413;BME280;5762;43.256;26.960;2022-12-29T12:16:35;100544.77;;;11.21;100.00
11413;BME280;5762;43.256;26.960;2022-12-29T12:19:06;100541.98;;;11.31;100.00
11413;BME280;5762;43.256;26.960;2022-12-29T12:27:01;100537.12;;;11.28;100.00
11413;BME280;5762;43.256;26.960;2022-12-29T12:29:38;100526.55;;;11.29;100.00
11413;BME280;5762;43.256;26.960;2022-12-29T12:32:12;100531.25;;;11.16;100.00
11413;BME280;5762;43.256;26.960;2022-12-29T12:34:41;100531.48;;;11.22;100.00
11413;BME280;5762;43.256;26.960;2022-12-29T12:42:31;100539.31;;;11.58;100.00
11413;BME280;5762;43.256;26.960;2022-12-29T12:45:16;100544.64;;;11.68;100.00
11413;BME280;5762;43.256;26.960;2022-12-29T12:50:14;100534.08;;;11.66;100.00
11413;BME280;5762;43.256;26.960;2022-12-29T12:52:46;100544.34;;;11.72;100.00
11413;BME280;5762;43.256;26.960;2022-12-29T12:58:08;100539.92;;;11.81;100.00
11413;BME280;5762;43.256;26.960;2022-12-29T13:00:35;100545.34;;;11.81;100.00
11413;BME280;5762;43.256;26.960;2022-12-29T13:03:09;100538.27;;;11.83;100.00
11413;BME280;5762;43.256;26.960;2022-12-29T13:08:24;100537.37;;;11.92;100.00
11413;BME280;5762;43.256;26.960;2022-12-29T13:10:58;100542.22;;;11.95;100.00
11413;BME280;5762;43.256;26.960;2022-12-29T13:13:34;100533.88;;;11.89;100.00
11413;BME280;5762;43.256;26.960;2022-12-29T13:16:03;100532.23;;;11.91;100.00
11413;BME280;5762;43.256;26.960;2022-12-29T13:18:45;100534.11;;;11.93;100.00
11413;BME280;5762;43.256;26.960;2022-12-29T13:21:16;100530.27;;;11.96;100.00
11413;BME280;5762;43.256;26.960;2022-12-29T13:23:46;100527.75;;;12.05;100.00
11413;BME280;5762;43.256;26.960;2022-12-29T13:26:34;100525.32;;;12.03;100.00
11413;BME280;5762;43.256;26.960;2022-12-29T13:31:48;100539.98;;;12.02;100.00
11413;BME280;5762;43.256;26.960;2022-12-29T13:37:00;100540.30;;;11.98;100.00
11413;BME280;5762;43.256;26.960;2022-12-29T13:39:33;100539.80;;;11.94;100.00
11413;BME280;5762;43.256;26.960;2022-12-29T13:42:02;100534.06;;;11.98;100.00
11413;BME280;5762;43.256;26.960;2022-12-29T13:44:32;100537.06;;;11.96;100.00
11413;BME280;5762;43.256;26.960;2022-12-29T13:47:36;100532.47;;;11.94;100.00
11413;BME280;5762;43.256;26.960;2022-12-29T13:49:36;100534.68;;;11.90;100.00
11413;BME280;5762;43.256;26.960;2022-12-29T13:52:13;100532.02;;;11.85;100.00
11413;BME280;5762;43.256;26.960;2022-12-29T13:54:43;100526.06;;;11.83;100.00
11413;BME280;5762;43.256;26.960;2022-12-29T14:00:01;100530.97;;;11.81;100.00
11413;BME280;5762;43.256;26.960;2022-12-29T14:07:56;100524.26;;;11.73;100.00
11413;BME280;5762;43.256;26.960;2022-12-29T14:10:32;100526.14;;;11.75;100.00
11413;BME280;5762;43.256;26.960;2022-12-29T14:13:05;100533.25;;;11.68;100.00
11413;BME280;5762;43.256;26.960;2022-12-29T14:15:33;100532.20;;;11.64;100.00
11413;BME280;5762;43.256;26.960;2022-12-29T14:18:04;100535.72;;;11.65;100.00
11413;BME280;5762;43.256;26.960;2022-12-29T14:20:33;100538.73;;;11.61;100.00
11413;BME280;5762;43.256;26.960;2022-12-29T14:28:27;100527.00;;;11.41;100.00
11413;BME280;5762;43.256;26.960;2022-12-29T14:31:01;100532.45;;;11.36;100.00